Plymouth, Minnesota
Current Conditions -  °F | °C
As of 9:53 PM on Friday 19 Dec 2014 (Local Time) from KMIC Reporting Station
Haze Haze  
Wind Chill: 22°   Ceiling: 1000
Heat Index: 30°   Visibility: 5mi
Dew Point: 26°   Wind: 9mph
Humidity: 85%   Direction: 150°SSE
Pressure: 30.15"   Gusts: NA
Location:  45.02°N, 93.47°W
Report Text: KMIC 200353Z AUTO 15008KT 5SM BR OVC010 M01/M03 A3015 RMK AO2 SLP223 T10111033
Loading
Personal Weather Stations






























Interactive Weather Map New forecast layout! Learn more

10-Day Weather Forecast

Advertisements
Track Severe Weather on mobile